createdAt,value
2018-02-23T00:02:01.593Z,78.07
2018-02-23T00:04:29.282Z,75.95
2018-02-23T00:06:56.033Z,67.55
2018-02-23T00:09:22.762Z,66.00
2018-02-23T00:11:49.496Z,63.80
2018-02-23T00:14:16.213Z,70.65
2018-02-23T00:16:43.012Z,70.40
2018-02-23T00:19:09.715Z,71.00
2018-02-23T00:21:36.463Z,69.28
2018-02-23T00:24:03.232Z,73.43
2018-02-23T00:26:30.007Z,68.30
2018-02-23T00:28:56.746Z,72.65
2018-02-23T00:31:23.472Z,75.05
2018-02-23T00:33:50.206Z,77.72
2018-02-23T00:36:16.925Z,68.20
2018-02-23T00:38:43.669Z,84.62
2018-02-23T00:41:10.382Z,86.95
2018-02-23T00:43:37.111Z,74.30
2018-02-23T00:46:03.814Z,74.10
2018-02-23T00:48:30.563Z,76.22
2018-02-23T00:50:57.300Z,76.93
2018-02-23T00:53:24.031Z,75.70
2018-02-23T00:55:50.792Z,75.12
2018-02-23T00:58:17.518Z,72.70
2018-02-23T01:00:44.249Z,79.03
2018-02-23T01:03:10.994Z,74.75
2018-02-23T01:05:37.713Z,79.70
2018-02-23T01:08:04.483Z,77.12
2018-02-23T01:10:31.204Z,77.00
2018-02-23T01:12:57.925Z,63.25
2018-02-23T01:15:24.660Z,74.37
2018-02-23T01:17:51.374Z,75.57
2018-02-23T01:20:18.114Z,78.70
2018-02-23T01:22:44.841Z,68.28
2018-02-23T01:25:11.587Z,67.55
2018-02-23T01:27:38.320Z,67.12
2018-02-23T01:30:05.057Z,69.12
2018-02-23T01:32:31.801Z,71.22
2018-02-23T01:34:58.537Z,61.95
2018-02-23T01:37:25.285Z,71.93
2018-02-23T01:39:52.070Z,78.05
2018-02-23T01:42:18.792Z,69.07
2018-02-23T01:44:45.522Z,70.57
2018-02-23T01:47:12.249Z,72.53
2018-02-23T01:49:38.992Z,72.07
2018-02-23T01:52:05.699Z,72.53
2018-02-23T01:54:32.441Z,63.45
2018-02-23T01:56:59.164Z,56.67
2018-02-23T01:59:25.904Z,63.95
2018-02-23T02:01:52.670Z,64.62
2018-02-23T02:04:19.401Z,70.62
2018-02-23T02:06:46.190Z,68.03
2018-02-23T02:09:12.917Z,65.12
2018-02-23T02:11:39.626Z,64.28
2018-02-23T02:14:06.374Z,63.08
2018-02-23T02:16:33.083Z,65.70
2018-02-23T02:18:59.846Z,72.25
2018-02-23T02:21:26.558Z,75.45
2018-02-23T02:23:53.325Z,78.40
2018-02-23T02:26:20.083Z,77.80
2018-02-23T02:28:46.813Z,74.37
2018-02-23T02:31:13.549Z,75.28
2018-02-23T02:33:40.296Z,82.05
2018-02-23T02:36:07.055Z,73.87
2018-02-23T02:38:33.786Z,81.85
2018-02-23T02:41:00.516Z,80.57
2018-02-23T02:43:27.284Z,83.97
2018-02-23T02:45:54.018Z,75.40
2018-02-23T02:48:20.802Z,76.60
2018-02-23T02:50:47.513Z,75.78
2018-02-23T02:53:14.245Z,82.80
2018-02-23T02:55:41.004Z,74.45
2018-02-23T02:58:07.730Z,71.22
2018-02-23T03:00:34.494Z,77.12
2018-02-23T03:03:01.210Z,75.30
2018-02-23T03:05:27.927Z,77.87
2018-02-23T03:07:54.663Z,72.10
2018-02-23T03:10:21.473Z,72.22
2018-02-23T03:12:48.198Z,75.32
2018-02-23T03:15:14.913Z,79.18
2018-02-23T03:17:41.622Z,75.55
2018-02-23T03:20:08.351Z,64.93
2018-02-23T03:22:35.071Z,72.68
2018-02-23T03:25:01.805Z,74.43
2018-02-23T03:27:28.521Z,74.55
2018-02-23T03:29:55.251Z,68.78
2018-02-23T03:32:21.981Z,69.65
2018-02-23T03:34:48.707Z,70.05
2018-02-23T03:37:15.445Z,67.60
2018-02-23T03:39:42.195Z,72.62
2018-02-23T03:42:08.941Z,67.87
2018-02-23T03:44:35.678Z,66.80
2018-02-23T03:47:02.393Z,67.68
2018-02-23T03:49:29.150Z,64.50
2018-02-23T03:51:55.867Z,65.18
2018-02-23T03:54:22.573Z,65.93
2018-02-23T03:56:49.291Z,60.92
2018-02-23T03:59:16.026Z,65.35
2018-02-23T04:01:42.767Z,63.70
2018-02-23T04:04:09.507Z,66.18
2018-02-23T04:06:36.247Z,68.30
2018-02-23T04:09:03.009Z,69.90
2018-02-23T04:11:29.775Z,72.93
2018-02-23T04:13:56.512Z,68.28
2018-02-23T04:16:23.272Z,71.95
2018-02-23T04:18:49.986Z,69.85
2018-02-23T04:21:16.746Z,72.45
2018-02-23T04:23:43.450Z,64.10
2018-02-23T04:26:10.177Z,65.50
2018-02-23T04:28:36.895Z,65.68
2018-02-23T04:31:03.653Z,65.22
2018-02-23T04:33:30.411Z,63.80
2018-02-23T04:35:57.129Z,67.62
2018-02-23T04:38:23.867Z,70.35
2018-02-23T04:40:50.605Z,74.85
2018-02-23T04:43:17.328Z,72.22
2018-02-23T04:45:44.088Z,76.75
2018-02-23T04:48:10.829Z,70.93
2018-02-23T04:50:37.559Z,74.62
2018-02-23T04:53:04.342Z,70.20
2018-02-23T04:55:31.060Z,75.47
2018-02-23T04:57:57.797Z,72.62
2018-02-23T05:00:24.544Z,87.30
2018-02-23T05:02:51.277Z,78.87
2018-02-23T05:05:18.057Z,81.53
2018-02-23T05:07:44.807Z,86.90
2018-02-23T05:10:11.544Z,84.40
2018-02-23T05:12:38.303Z,72.07
2018-02-23T05:15:05.031Z,79.18
2018-02-23T05:17:31.787Z,79.05
2018-02-23T05:19:58.493Z,75.25
2018-02-23T05:22:25.267Z,73.20
2018-02-23T05:24:52.013Z,73.22
2018-02-23T05:27:18.748Z,79.65
2018-02-23T05:29:45.642Z,83.70
2018-02-23T05:32:12.348Z,76.57
2018-02-23T05:34:39.090Z,74.30
2018-02-23T05:37:05.823Z,85.95
2018-02-23T05:39:32.534Z,83.00
2018-02-23T05:41:59.271Z,86.55
2018-02-23T05:44:26.001Z,76.75
2018-02-23T05:46:52.735Z,78.43
2018-02-23T05:49:19.451Z,71.85
2018-02-23T05:51:46.185Z,75.05
2018-02-23T05:54:12.925Z,74.32
2018-02-23T05:56:39.662Z,71.43
2018-02-23T05:59:06.403Z,81.10
2018-02-23T06:01:33.144Z,67.93
2018-02-23T06:03:59.889Z,68.40
2018-02-23T06:06:26.623Z,75.93
2018-02-23T06:08:53.350Z,63.90
2018-02-23T06:11:20.106Z,67.60
2018-02-23T06:13:46.836Z,70.68
2018-02-23T06:16:19.230Z,73.22
2018-02-23T06:18:51.687Z,75.90
2018-02-23T06:21:18.475Z,76.00
2018-02-23T06:23:45.193Z,80.20
2018-02-23T06:26:11.929Z,72.15
2018-02-23T06:28:38.645Z,74.00
2018-02-23T06:31:05.390Z,71.25
2018-02-23T06:33:32.125Z,70.82
2018-02-23T06:35:58.842Z,74.20
2018-02-23T06:38:25.574Z,65.10
2018-02-23T06:40:52.279Z,70.85
2018-02-23T06:43:19.032Z,68.93
2018-02-23T06:45:45.742Z,74.00
2018-02-23T06:48:12.539Z,73.97
2018-02-23T06:50:39.289Z,64.93
2018-02-23T06:53:06.007Z,75.32
2018-02-23T06:55:32.735Z,67.62
2018-02-23T06:57:59.461Z,66.47
2018-02-23T07:00:26.229Z,72.47
2018-02-23T07:02:52.972Z,74.65
2018-02-23T07:05:19.746Z,64.78
2018-02-23T07:07:46.489Z,65.62
2018-02-23T07:10:13.239Z,70.22
2018-02-23T07:12:39.997Z,63.87
2018-02-23T07:15:06.717Z,70.10
2018-02-23T07:17:33.451Z,63.67
2018-02-23T07:20:00.160Z,67.78
2018-02-23T07:22:26.902Z,62.00
2018-02-23T07:24:53.634Z,58.47
2018-02-23T07:27:20.376Z,69.20
2018-02-23T07:29:47.099Z,64.60
2018-02-23T07:32:13.813Z,58.83
2018-02-23T07:34:40.557Z,57.45
2018-02-23T07:37:07.346Z,76.47
2018-02-23T07:39:34.058Z,57.60
2018-02-23T07:42:00.831Z,57.05
2018-02-23T07:44:27.564Z,56.37
2018-02-23T07:46:54.321Z,57.73
2018-02-23T07:49:21.039Z,54.60
2018-02-23T07:51:47.793Z,51.05
2018-02-23T07:54:14.509Z,58.80
2018-02-23T07:56:41.280Z,54.80
2018-02-23T07:59:08.045Z,53.30
2018-02-23T08:01:34.770Z,55.40
2018-02-23T08:04:01.575Z,58.30
2018-02-23T08:06:28.304Z,54.90
2018-02-23T08:08:55.054Z,60.30
2018-02-23T08:11:21.763Z,56.93
2018-02-23T08:13:48.488Z,60.23
2018-02-23T08:16:15.212Z,58.07
2018-02-23T08:18:41.937Z,60.72
2018-02-23T08:21:08.698Z,53.23
2018-02-23T08:23:35.408Z,53.13
2018-02-23T08:26:02.143Z,55.93
2018-02-23T08:28:28.849Z,55.07
2018-02-23T08:30:55.565Z,56.77
2018-02-23T08:33:22.296Z,58.90
2018-02-23T08:35:49.005Z,46.93
2018-02-23T08:38:15.756Z,49.00
2018-02-23T08:40:42.474Z,57.70
2018-02-23T08:43:09.194Z,51.60
2018-02-23T08:45:35.917Z,48.20
2018-02-23T08:48:02.625Z,42.03
2018-02-23T08:50:29.368Z,69.50
2018-02-23T08:52:56.092Z,71.33
2018-02-23T08:55:22.788Z,60.97
2018-02-23T08:57:49.520Z,60.47
2018-02-23T09:00:19.070Z,60.50
2018-02-23T09:02:45.814Z,55.90
2018-02-23T09:05:12.514Z,61.70
2018-02-23T09:07:39.250Z,52.70
2018-02-23T09:10:05.957Z,66.27
2018-02-23T09:12:32.701Z,77.33
2018-02-23T09:14:59.442Z,1999.90
2018-02-23T09:17:26.162Z,86.87
2018-02-23T09:19:52.889Z,85.63
2018-02-23T09:22:19.657Z,30.33
2018-02-23T09:24:46.391Z,30.43
2018-02-23T09:27:13.103Z,29.57
2018-02-23T09:29:39.833Z,32.87
2018-02-23T09:32:12.524Z,28.47
2018-02-23T09:34:42.987Z,28.70
2018-02-23T09:37:09.708Z,30.00
2018-02-23T09:39:36.414Z,32.60
2018-02-23T09:42:03.149Z,34.00
2018-02-23T09:44:29.853Z,29.90
2018-02-23T09:46:56.569Z,31.60
2018-02-23T09:49:23.340Z,31.33
2018-02-23T09:51:50.041Z,35.03
2018-02-23T09:54:16.811Z,1999.90
2018-02-23T09:56:43.569Z,33.73
2018-02-23T09:59:10.292Z,31.67
2018-02-23T10:01:37.018Z,1999.90
2018-02-23T10:04:03.724Z,31.20
2018-02-23T10:06:30.470Z,32.80
2018-02-23T10:08:57.189Z,35.90
2018-02-23T10:11:23.910Z,36.40
2018-02-23T10:13:50.662Z,32.50
2018-02-23T10:16:17.360Z,33.50
2018-02-23T10:18:44.117Z,31.60
2018-02-23T10:21:10.829Z,32.40
2018-02-23T10:23:37.630Z,32.93
2018-02-23T10:26:04.321Z,28.63
2018-02-23T10:28:31.045Z,32.57
2018-02-23T10:30:57.793Z,1999.90
2018-02-23T10:33:24.528Z,1999.90
2018-02-23T10:35:51.311Z,1999.90
2018-02-23T10:38:18.084Z,1999.90
2018-02-23T10:40:44.861Z,1999.90
2018-02-23T10:43:14.346Z,1999.90
2018-02-23T10:45:41.097Z,1999.90
2018-02-23T10:48:07.873Z,1999.90
2018-02-23T10:50:34.617Z,121.27
2018-02-23T10:53:01.370Z,67.87
2018-02-23T10:55:28.095Z,199.07
2018-02-23T10:57:54.836Z,77.40
2018-02-23T11:00:21.601Z,34.27
2018-02-23T11:02:48.367Z,27.30
2018-02-23T11:05:15.121Z,27.67
2018-02-23T11:07:41.862Z,27.40
2018-02-23T11:10:08.611Z,29.30
2018-02-23T11:12:35.314Z,27.57
2018-02-23T11:15:02.044Z,30.83
2018-02-23T11:17:28.797Z,1999.90
2018-02-23T11:19:55.522Z,83.30
2018-02-23T11:22:22.272Z,33.50
2018-02-23T11:24:48.972Z,31.87
2018-02-23T11:27:15.707Z,29.03
2018-02-23T11:29:42.440Z,32.43
2018-02-23T11:32:09.166Z,31.93
2018-02-23T11:34:35.949Z,32.60
2018-02-23T11:37:02.674Z,1999.90
2018-02-23T11:39:29.417Z,34.23
2018-02-23T11:41:56.121Z,32.87
2018-02-23T11:44:22.886Z,29.83
2018-02-23T11:46:49.622Z,31.50
2018-02-23T11:49:16.590Z,27.97
2018-02-23T11:51:43.345Z,28.90
2018-02-23T11:54:10.059Z,30.30
2018-02-23T11:56:36.783Z,31.27
2018-02-23T11:59:03.505Z,31.90
2018-02-23T12:01:30.211Z,29.50
2018-02-23T12:03:56.945Z,358.37
2018-02-23T12:06:23.658Z,34.73
2018-02-23T12:08:50.372Z,37.70
2018-02-23T12:11:17.110Z,35.73
2018-02-23T12:13:43.809Z,31.27
2018-02-23T12:16:10.549Z,31.90
2018-02-23T12:18:37.279Z,29.40
2018-02-23T12:21:04.004Z,29.77
2018-02-23T12:23:30.764Z,29.37
2018-02-23T12:25:57.482Z,28.17
2018-02-23T12:28:24.254Z,36.70
2018-02-23T12:30:50.982Z,29.03
2018-02-23T12:33:17.725Z,28.40
2018-02-23T12:35:44.475Z,130.03
2018-02-23T12:38:11.226Z,26.33
2018-02-23T12:40:37.968Z,24.50
2018-02-23T12:43:04.694Z,24.03
2018-02-23T12:45:31.435Z,23.50
2018-02-23T12:47:58.184Z,30.47
2018-02-23T12:50:24.899Z,27.87
2018-02-23T12:52:51.662Z,1999.90
2018-02-23T12:55:18.383Z,1412.57
2018-02-23T12:57:45.127Z,24.20
2018-02-23T13:00:11.862Z,25.33
2018-02-23T13:02:38.571Z,22.17
2018-02-23T13:05:05.336Z,25.30
2018-02-23T13:07:32.105Z,21.77
2018-02-23T13:09:58.873Z,20.53
2018-02-23T13:12:25.597Z,19.27
2018-02-23T13:14:57.929Z,17.70
2018-02-23T13:17:24.695Z,20.03
2018-02-23T13:19:51.435Z,19.00
2018-02-23T13:22:18.171Z,19.27
2018-02-23T13:24:44.889Z,141.73
2018-02-23T13:27:17.369Z,128.43
2018-02-23T13:29:44.079Z,30.30
2018-02-23T13:32:10.853Z,32.13
2018-02-23T13:34:37.581Z,214.07
2018-02-23T13:37:04.315Z,356.87
2018-02-23T13:39:31.047Z,34.33
2018-02-23T13:41:57.780Z,21.50
2018-02-23T13:44:24.520Z,24.37
2018-02-23T13:46:51.226Z,23.83
2018-02-23T13:49:17.944Z,25.53
2018-02-23T13:51:44.680Z,23.70
2018-02-23T13:54:17.168Z,26.57
2018-02-23T13:56:43.917Z,24.07
2018-02-23T13:59:10.661Z,23.37
2018-02-23T14:01:37.448Z,24.23
2018-02-23T14:04:04.194Z,20.83
2018-02-23T14:06:33.531Z,20.60
2018-02-23T14:09:00.265Z,19.90
2018-02-23T14:11:26.971Z,20.20
2018-02-23T14:13:53.708Z,22.83
2018-02-23T14:16:20.457Z,33.37
2018-02-23T14:18:47.177Z,32.67
2018-02-23T14:21:13.920Z,29.10
2018-02-23T14:23:40.632Z,29.47
2018-02-23T14:26:07.366Z,281.07
2018-02-23T14:28:34.096Z,21.33
2018-02-23T14:31:00.832Z,31.40
2018-02-23T14:33:27.583Z,25.33
2018-02-23T14:35:54.302Z,28.73
2018-02-23T14:38:21.058Z,28.10
2018-02-23T14:40:47.766Z,30.70
2018-02-23T14:43:14.753Z,31.67
2018-02-23T14:45:41.509Z,1999.90
2018-02-23T14:48:08.283Z,1999.90
2018-02-23T14:50:40.994Z,1999.90
2018-02-23T14:53:07.722Z,1999.90
2018-02-23T14:55:34.477Z,1999.90
2018-02-23T14:58:01.202Z,1999.90
2018-02-23T15:00:27.920Z,1999.90
2018-02-23T15:02:54.664Z,1999.90
2018-02-23T15:05:21.422Z,1999.90
2018-02-23T15:07:48.170Z,110.83
2018-02-23T15:10:14.893Z,86.30
2018-02-23T15:12:41.605Z,81.43
2018-02-23T15:15:08.338Z,83.17
2018-02-23T15:17:35.046Z,89.67
2018-02-23T15:20:01.784Z,85.67
2018-02-23T15:22:28.580Z,82.67
2018-02-23T15:24:55.308Z,85.17
2018-02-23T15:27:22.040Z,83.83
2018-02-23T15:29:48.745Z,85.43
2018-02-23T15:32:21.319Z,84.77
2018-02-23T15:34:48.048Z,87.30
2018-02-23T15:37:14.799Z,89.57
2018-02-23T15:39:41.566Z,88.40
2018-02-23T15:42:08.271Z,87.23
2018-02-23T15:44:35.051Z,86.10
2018-02-23T15:47:01.839Z,89.97
2018-02-23T15:49:34.137Z,48.17
2018-02-23T15:52:03.563Z,63.87
2018-02-23T15:54:30.300Z,88.37
2018-02-23T15:56:57.110Z,93.97
2018-02-23T15:59:23.852Z,91.37
2018-02-23T16:01:50.635Z,96.13
2018-02-23T16:04:17.414Z,89.43
2018-02-23T16:06:44.159Z,91.60
2018-02-23T16:09:10.942Z,1999.90
2018-02-23T16:11:37.706Z,1999.90
2018-02-23T16:14:04.487Z,1999.90
2018-02-23T16:16:31.285Z,1999.90
2018-02-23T16:18:58.062Z,1999.90
2018-02-23T16:21:24.780Z,1999.90
2018-02-23T16:23:51.522Z,362.40
2018-02-23T16:26:18.255Z,51.97
2018-02-23T16:28:44.992Z,61.63
2018-02-23T16:31:11.732Z,66.70
2018-02-23T16:33:38.460Z,75.80
2018-02-23T16:36:05.180Z,67.13
2018-02-23T16:38:31.950Z,65.77
2018-02-23T16:40:58.687Z,68.73
2018-02-23T16:43:25.398Z,72.77
2018-02-23T16:45:52.151Z,72.47
2018-02-23T16:48:18.891Z,68.77
2018-02-23T16:50:45.597Z,52.97
2018-02-23T16:53:12.330Z,52.50
2018-02-23T16:55:39.061Z,52.90
2018-02-23T16:58:05.797Z,56.73
2018-02-23T17:00:32.502Z,61.20
2018-02-23T17:02:59.243Z,56.87
2018-02-23T17:05:25.975Z,60.73
2018-02-23T17:07:52.735Z,64.50
2018-02-23T17:10:19.454Z,62.90
2018-02-23T17:12:46.162Z,65.20
2018-02-23T17:15:12.903Z,63.53
2018-02-23T17:17:39.616Z,60.80
2018-02-23T17:20:06.398Z,61.93
2018-02-23T17:22:33.172Z,65.07
2018-02-23T17:24:59.887Z,56.70
2018-02-23T17:27:26.624Z,60.63
2018-02-23T17:29:53.355Z,64.57
2018-02-23T17:32:20.103Z,60.70
2018-02-23T17:34:46.862Z,65.47
2018-02-23T17:37:13.586Z,64.03
2018-02-23T17:39:40.320Z,67.30
2018-02-23T17:42:07.050Z,70.13
2018-02-23T17:44:33.784Z,72.30
2018-02-23T17:47:00.520Z,67.13
2018-02-23T17:49:27.252Z,71.67
2018-02-23T17:51:54.055Z,70.43
2018-02-23T17:54:20.790Z,68.40
2018-02-23T17:56:47.541Z,67.50
2018-02-23T17:59:14.266Z,70.53
2018-02-23T18:01:40.996Z,74.80
2018-02-23T18:04:07.737Z,65.90
2018-02-23T18:06:34.493Z,65.53
2018-02-23T18:09:01.239Z,66.43
2018-02-23T18:11:28.005Z,67.63
2018-02-23T18:13:54.708Z,73.20
2018-02-23T18:16:21.458Z,59.97
2018-02-23T18:18:48.235Z,62.67
2018-02-23T18:21:14.931Z,68.60
2018-02-23T18:23:41.661Z,71.23
2018-02-23T18:26:08.371Z,68.90
2018-02-23T18:28:35.149Z,70.53
2018-02-23T18:31:01.874Z,65.40
2018-02-23T18:33:28.659Z,65.60
2018-02-23T18:35:55.421Z,77.27
2018-02-23T18:38:22.169Z,74.63
2018-02-23T18:40:48.926Z,71.33
2018-02-23T18:43:15.643Z,72.67
2018-02-23T18:45:42.361Z,78.77
2018-02-23T18:48:09.120Z,77.60
2018-02-23T18:50:35.833Z,70.13
2018-02-23T18:53:02.584Z,64.77
2018-02-23T18:55:29.325Z,63.80
2018-02-23T18:57:56.039Z,66.10
2018-02-23T19:00:22.770Z,62.40
2018-02-23T19:02:49.477Z,63.53
2018-02-23T19:05:16.250Z,63.27
2018-02-23T19:07:43.011Z,64.12
2018-02-23T19:10:09.800Z,61.97
2018-02-23T19:12:36.593Z,61.10
2018-02-23T19:15:03.343Z,64.10
2018-02-23T19:17:30.099Z,67.10
2018-02-23T19:19:56.818Z,91.30
2018-02-23T19:22:23.598Z,72.00
2018-02-23T19:24:50.352Z,80.50
2018-02-23T19:27:17.082Z,76.63
2018-02-23T19:29:43.886Z,69.40
2018-02-23T19:32:10.627Z,66.13
2018-02-23T19:34:37.430Z,66.10
2018-02-23T19:37:04.137Z,68.33
2018-02-23T19:39:30.922Z,72.53
2018-02-23T19:41:57.642Z,67.20
2018-02-23T19:44:24.356Z,66.70
2018-02-23T19:46:51.110Z,71.93
2018-02-23T19:49:17.843Z,67.00
2018-02-23T19:51:44.593Z,64.90
2018-02-23T19:54:11.318Z,71.50
2018-02-23T19:56:38.068Z,68.47
2018-02-23T19:59:04.813Z,72.50
2018-02-23T20:01:31.568Z,72.40
2018-02-23T20:03:58.326Z,69.80
2018-02-23T20:06:25.095Z,74.10
2018-02-23T20:08:51.888Z,67.27
2018-02-23T20:11:18.629Z,63.10
2018-02-23T20:13:45.454Z,63.80
2018-02-23T20:16:12.252Z,66.43
2018-02-23T20:18:38.993Z,76.03
2018-02-23T20:21:05.999Z,71.10
2018-02-23T20:23:32.795Z,73.17
2018-02-23T20:25:59.526Z,72.80
2018-02-23T20:28:26.358Z,69.53
2018-02-23T20:30:53.254Z,70.43
2018-02-23T20:33:20.194Z,63.05
2018-02-23T20:35:47.097Z,69.70
2018-02-23T20:38:13.904Z,68.97
2018-02-23T20:40:40.643Z,67.30
2018-02-23T20:43:07.459Z,66.30
2018-02-23T20:45:34.271Z,64.83
2018-02-23T20:48:00.966Z,71.67
2018-02-23T20:50:27.704Z,70.47
2018-02-23T20:52:54.611Z,64.87
2018-02-23T20:55:21.459Z,66.27
2018-02-23T20:57:48.311Z,71.83
2018-02-23T21:00:15.100Z,63.07
2018-02-23T21:02:41.867Z,66.97
2018-02-23T21:05:08.685Z,66.63
2018-02-23T21:07:35.468Z,64.07
2018-02-23T21:10:02.201Z,62.37
2018-02-23T21:12:28.898Z,64.60
2018-02-23T21:14:55.633Z,66.80
2018-02-23T21:17:22.351Z,74.43
2018-02-23T21:19:49.084Z,66.23
2018-02-23T21:22:15.816Z,71.67
2018-02-23T21:24:42.545Z,66.63
2018-02-23T21:27:09.290Z,69.60
2018-02-23T21:29:36.006Z,67.37
2018-02-23T21:32:02.791Z,65.63
2018-02-23T21:34:29.571Z,71.27
2018-02-23T21:36:56.305Z,66.18
2018-02-23T21:39:23.055Z,78.13
2018-02-23T21:41:53.825Z,75.90
2018-02-23T21:44:20.537Z,75.40
2018-02-23T21:46:47.298Z,76.23
2018-02-23T21:49:14.042Z,75.63
2018-02-23T21:51:40.778Z,71.50
2018-02-23T21:54:07.537Z,72.17
2018-02-23T21:56:34.258Z,73.47
2018-02-23T21:59:01.050Z,76.78
2018-02-23T22:01:27.803Z,77.90
2018-02-23T22:03:54.550Z,71.47
2018-02-23T22:06:21.300Z,67.03
2018-02-23T22:08:48.014Z,63.40
2018-02-23T22:11:14.774Z,69.17
2018-02-23T22:13:41.512Z,76.20
2018-02-23T22:16:08.211Z,70.23
2018-02-23T22:18:34.989Z,61.08
2018-02-23T22:21:01.689Z,61.10
2018-02-23T22:23:28.415Z,70.47
2018-02-23T22:25:55.171Z,75.45
2018-02-23T22:28:21.894Z,71.68
2018-02-23T22:30:48.690Z,66.37
2018-02-23T22:33:15.387Z,67.53
2018-02-23T22:35:42.128Z,68.53
2018-02-23T22:38:08.842Z,65.63
2018-02-23T22:40:35.560Z,64.80
2018-02-23T22:43:02.315Z,69.07
2018-02-23T22:45:29.034Z,72.63
2018-02-23T22:47:55.794Z,78.20
2018-02-23T22:50:22.504Z,80.10
2018-02-23T22:52:49.271Z,82.10
2018-02-23T22:55:16.003Z,78.57
2018-02-23T22:57:42.716Z,73.30
2018-02-23T23:00:09.495Z,73.40
2018-02-23T23:02:36.199Z,76.17
2018-02-23T23:05:02.944Z,75.43
2018-02-23T23:07:29.647Z,71.23
2018-02-23T23:09:56.369Z,79.83
2018-02-23T23:12:23.124Z,75.00
2018-02-23T23:14:49.839Z,73.93
2018-02-23T23:17:16.574Z,78.32
2018-02-23T23:19:43.307Z,73.17
2018-02-23T23:22:10.030Z,69.67
2018-02-23T23:24:36.789Z,86.17
2018-02-23T23:27:03.515Z,79.32
2018-02-23T23:29:30.310Z,78.50
2018-02-23T23:31:57.056Z,84.60
2018-02-23T23:34:23.760Z,78.33
2018-02-23T23:36:50.481Z,83.23
2018-02-23T23:39:17.233Z,86.50
2018-02-23T23:41:43.935Z,79.63
2018-02-23T23:44:10.675Z,78.53
2018-02-23T23:46:37.409Z,81.13
2018-02-23T23:49:04.166Z,86.27
2018-02-23T23:51:30.914Z,87.70
2018-02-23T23:53:57.636Z,86.07
2018-02-23T23:56:24.420Z,72.83
2018-02-23T23:58:51.125Z,72.73
